sensor_id;sensor_type;location;lat;lon;timestamp;pressure;altitude;pressure_sealevel;temperature;humidity
11077;BME280;5591;42.626;23.380;2024-01-15T00:00:12;93624.97;;;1.02;98.26
11077;BME280;5591;42.626;23.380;2024-01-15T00:02:41;93626.78;;;0.92;98.27
11077;BME280;5591;42.626;23.380;2024-01-15T00:05:07;93629.91;;;0.68;100.00
11077;BME280;5591;42.626;23.380;2024-01-15T00:07:35;93603.91;;;0.79;100.00
11077;BME280;5591;42.626;23.380;2024-01-15T00:10:02;93548.44;;;0.48;100.00
11077;BME280;5591;42.626;23.380;2024-01-15T00:12:29;93613.97;;;0.82;100.00
11077;BME280;5591;42.626;23.380;2024-01-15T00:14:56;93608.19;;;0.88;100.00
11077;BME280;5591;42.626;23.380;2024-01-15T00:17:22;93614.53;;;0.94;99.84
11077;BME280;5591;42.626;23.380;2024-01-15T00:19:51;93597.88;;;0.88;100.00
11077;BME280;5591;42.626;23.380;2024-01-15T00:22:18;93613.34;;;0.88;100.00
11077;BME280;5591;42.626;23.380;2024-01-15T00:24:45;93616.00;;;0.79;100.00
11077;BME280;5591;42.626;23.380;2024-01-15T00:27:12;93604.59;;;0.81;100.00
11077;BME280;5591;42.626;23.380;2024-01-15T00:29:39;93617.34;;;0.83;100.00
11077;BME280;5591;42.626;23.380;2024-01-15T00:32:05;93604.47;;;0.56;100.00
11077;BME280;5591;42.626;23.380;2024-01-15T00:34:32;93610.22;;;0.67;100.00
11077;BME280;5591;42.626;23.380;2024-01-15T00:37:00;93601.47;;;0.60;100.00
11077;BME280;5591;42.626;23.380;2024-01-15T00:39:28;93605.59;;;0.71;100.00
11077;BME280;5591;42.626;23.380;2024-01-15T00:41:55;93622.00;;;0.52;100.00
11077;BME280;5591;42.626;23.380;2024-01-15T00:44:21;93620.69;;;0.48;100.00
11077;BME280;5591;42.626;23.380;2024-01-15T00:46:48;93607.81;;;0.66;100.00
11077;BME280;5591;42.626;23.380;2024-01-15T00:49:15;93613.31;;;0.53;100.00
11077;BME280;5591;42.626;23.380;2024-01-15T00:51:42;93612.06;;;0.57;100.00
11077;BME280;5591;42.626;23.380;2024-01-15T00:54:10;93611.56;;;0.54;100.00
11077;BME280;5591;42.626;23.380;2024-01-15T00:56:37;93603.50;;;0.57;100.00
11077;BME280;5591;42.626;23.380;2024-01-15T00:59:04;93600.13;;;0.29;100.00
11077;BME280;5591;42.626;23.380;2024-01-15T01:01:31;93610.56;;;0.01;100.00
11077;BME280;5591;42.626;23.380;2024-01-15T01:03:58;93611.03;;;0.50;100.00
11077;BME280;5591;42.626;23.380;2024-01-15T01:06:25;93620.53;;;0.50;100.00
11077;BME280;5591;42.626;23.380;2024-01-15T01:08:51;93592.97;;;0.68;100.00
11077;BME280;5591;42.626;23.380;2024-01-15T01:11:20;93606.09;;;0.57;100.00
11077;BME280;5591;42.626;23.380;2024-01-15T01:13:46;93609.53;;;0.75;100.00
11077;BME280;5591;42.626;23.380;2024-01-15T01:16:13;93603.63;;;0.82;100.00
11077;BME280;5591;42.626;23.380;2024-01-15T01:18:40;93607.97;;;0.82;100.00
11077;BME280;5591;42.626;23.380;2024-01-15T01:21:07;93498.81;;;0.10;100.00
11077;BME280;5591;42.626;23.380;2024-01-15T01:23:33;93601.94;;;0.91;100.00
11077;BME280;5591;42.626;23.380;2024-01-15T01:26:00;93602.06;;;0.89;100.00
11077;BME280;5591;42.626;23.380;2024-01-15T01:28:29;93595.81;;;0.92;100.00
11077;BME280;5591;42.626;23.380;2024-01-15T01:30:55;93588.88;;;0.75;100.00
11077;BME280;5591;42.626;23.380;2024-01-15T01:33:22;93594.41;;;0.80;100.00
11077;BME280;5591;42.626;23.380;2024-01-15T01:35:49;93634.28;;;0.68;100.00
11077;BME280;5591;42.626;23.380;2024-01-15T01:38:16;93591.44;;;0.30;100.00
11077;BME280;5591;42.626;23.380;2024-01-15T01:40:42;93594.63;;;0.42;100.00
11077;BME280;5591;42.626;23.380;2024-01-15T01:43:09;93588.56;;;0.33;100.00
11077;BME280;5591;42.626;23.380;2024-01-15T01:45:38;93596.81;;;0.10;100.00
11077;BME280;5591;42.626;23.380;2024-01-15T01:48:05;93588.69;;;0.05;100.00
11077;BME280;5591;42.626;23.380;2024-01-15T01:50:32;93571.00;;;-0.63;100.00
11077;BME280;5591;42.626;23.380;2024-01-15T01:53:00;93589.75;;;-0.34;100.00
11077;BME280;5591;42.626;23.380;2024-01-15T01:55:29;93577.84;;;-0.35;100.00
11077;BME280;5591;42.626;23.380;2024-01-15T01:57:59;93574.66;;;-0.19;100.00
11077;BME280;5591;42.626;23.380;2024-01-15T02:00:25;93621.59;;;-0.16;100.00
11077;BME280;5591;42.626;23.380;2024-01-15T02:02:53;93558.22;;;-0.09;100.00
11077;BME280;5591;42.626;23.380;2024-01-15T02:05:21;93566.97;;;0.07;100.00
11077;BME280;5591;42.626;23.380;2024-01-15T02:07:48;93555.22;;;-0.04;100.00
11077;BME280;5591;42.626;23.380;2024-01-15T02:10:15;93570.81;;;0.21;100.00
11077;BME280;5591;42.626;23.380;2024-01-15T02:12:42;93566.97;;;0.07;100.00
11077;BME280;5591;42.626;23.380;2024-01-15T02:15:09;93515.91;;;-0.16;100.00
11077;BME280;5591;42.626;23.380;2024-01-15T02:17:57;93575.69;;;-0.03;100.00
11077;BME280;5591;42.626;23.380;2024-01-15T02:20:24;93543.13;;;-0.04;100.00
11077;BME280;5591;42.626;23.380;2024-01-15T02:22:51;93542.94;;;-0.20;100.00
11077;BME280;5591;42.626;23.380;2024-01-15T02:25:19;93543.84;;;-0.11;100.00
11077;BME280;5591;42.626;23.380;2024-01-15T02:27:47;93510.53;;;-0.22;100.00
11077;BME280;5591;42.626;23.380;2024-01-15T02:30:14;93536.69;;;0.09;100.00
11077;BME280;5591;42.626;23.380;2024-01-15T02:32:42;93508.13;;;-0.07;100.00
11077;BME280;5591;42.626;23.380;2024-01-15T02:35:08;93492.81;;;-0.08;100.00
11077;BME280;5591;42.626;23.380;2024-01-15T02:37:36;93527.53;;;-0.03;100.00
11077;BME280;5591;42.626;23.380;2024-01-15T02:40:03;93493.41;;;0.03;100.00
11077;BME280;5591;42.626;23.380;2024-01-15T02:42:31;93492.59;;;-0.14;100.00
11077;BME280;5591;42.626;23.380;2024-01-15T02:44:58;93488.03;;;-0.03;100.00
11077;BME280;5591;42.626;23.380;2024-01-15T02:47:25;93490.25;;;-0.08;100.00
11077;BME280;5591;42.626;23.380;2024-01-15T02:49:51;93443.41;;;-0.57;100.00
11077;BME280;5591;42.626;23.380;2024-01-15T02:52:18;93370.13;;;-0.99;100.00
11077;BME280;5591;42.626;23.380;2024-01-15T02:54:45;93485.75;;;-0.06;100.00
11077;BME280;5591;42.626;23.380;2024-01-15T02:57:12;93381.91;;;-0.70;100.00
11077;BME280;5591;42.626;23.380;2024-01-15T02:59:40;93481.75;;;0.26;100.00
11077;BME280;5591;42.626;23.380;2024-01-15T03:02:06;93466.34;;;0.52;100.00
11077;BME280;5591;42.626;23.380;2024-01-15T03:04:33;93470.06;;;0.67;100.00
11077;BME280;5591;42.626;23.380;2024-01-15T03:07:00;93480.16;;;0.43;100.00
11077;BME280;5591;42.626;23.380;2024-01-15T03:09:27;93527.13;;;0.81;100.00
11077;BME280;5591;42.626;23.380;2024-01-15T03:11:53;93484.00;;;0.99;100.00
11077;BME280;5591;42.626;23.380;2024-01-15T03:14:20;93487.31;;;1.09;100.00
11077;BME280;5591;42.626;23.380;2024-01-15T03:16:51;93484.75;;;1.09;100.00
11077;BME280;5591;42.626;23.380;2024-01-15T03:19:18;93485.41;;;1.11;100.00
11077;BME280;5591;42.626;23.380;2024-01-15T03:21:44;93479.03;;;1.23;100.00
11077;BME280;5591;42.626;23.380;2024-01-15T03:24:11;93486.31;;;1.02;100.00
11077;BME280;5591;42.626;23.380;2024-01-15T03:26:38;93477.63;;;1.29;100.00
11077;BME280;5591;42.626;23.380;2024-01-15T03:29:05;93474.03;;;1.22;100.00
11077;BME280;5591;42.626;23.380;2024-01-15T03:31:32;93477.69;;;0.76;100.00
11077;BME280;5591;42.626;23.380;2024-01-15T03:34:00;93467.31;;;0.51;100.00
11077;BME280;5591;42.626;23.380;2024-01-15T03:36:27;93454.84;;;0.81;100.00
11077;BME280;5591;42.626;23.380;2024-01-15T03:38:54;93469.00;;;0.42;100.00
11077;BME280;5591;42.626;23.380;2024-01-15T03:41:21;93446.66;;;0.16;100.00
11077;BME280;5591;42.626;23.380;2024-01-15T03:43:47;93452.00;;;0.32;100.00
11077;BME280;5591;42.626;23.380;2024-01-15T03:46:14;93489.09;;;-0.59;100.00
11077;BME280;5591;42.626;23.380;2024-01-15T03:48:41;93429.81;;;-0.50;100.00
11077;BME280;5591;42.626;23.380;2024-01-15T03:51:09;93471.03;;;-0.50;100.00
11077;BME280;5591;42.626;23.380;2024-01-15T03:53:36;93458.84;;;-1.03;100.00
11077;BME280;5591;42.626;23.380;2024-01-15T03:56:04;93424.75;;;-0.15;100.00
11077;BME280;5591;42.626;23.380;2024-01-15T03:58:31;93462.91;;;-0.01;100.00
11077;BME280;5591;42.626;23.380;2024-01-15T04:00:58;93445.03;;;0.15;100.00
11077;BME280;5591;42.626;23.380;2024-01-15T04:03:24;93450.06;;;0.34;100.00
11077;BME280;5591;42.626;23.380;2024-01-15T04:05:51;93447.03;;;0.21;100.00
11077;BME280;5591;42.626;23.380;2024-01-15T04:08:19;93446.31;;;0.46;100.00
11077;BME280;5591;42.626;23.380;2024-01-15T04:10:46;93416.16;;;0.29;100.00
11077;BME280;5591;42.626;23.380;2024-01-15T04:13:13;93433.63;;;0.52;100.00
11077;BME280;5591;42.626;23.380;2024-01-15T04:15:40;93428.91;;;0.48;100.00
11077;BME280;5591;42.626;23.380;2024-01-15T04:18:06;93430.41;;;0.50;100.00
11077;BME280;5591;42.626;23.380;2024-01-15T04:20:33;93429.22;;;0.45;100.00
11077;BME280;5591;42.626;23.380;2024-01-15T04:23:00;93423.75;;;0.30;100.00
11077;BME280;5591;42.626;23.380;2024-01-15T04:25:28;93429.13;;;0.37;100.00
11077;BME280;5591;42.626;23.380;2024-01-15T04:27:55;93425.59;;;0.20;100.00
11077;BME280;5591;42.626;23.380;2024-01-15T04:30:22;93446.97;;;0.30;100.00
11077;BME280;5591;42.626;23.380;2024-01-15T04:32:48;93434.19;;;-0.06;100.00
11077;BME280;5591;42.626;23.380;2024-01-15T04:35:15;93437.19;;;0.16;100.00
11077;BME280;5591;42.626;23.380;2024-01-15T04:37:42;93447.97;;;0.20;100.00
11077;BME280;5591;42.626;23.380;2024-01-15T04:40:10;93443.75;;;-0.16;100.00
11077;BME280;5591;42.626;23.380;2024-01-15T04:42:38;93437.31;;;-0.29;100.00
11077;BME280;5591;42.626;23.380;2024-01-15T04:45:05;93390.69;;;-0.36;100.00
11077;BME280;5591;42.626;23.380;2024-01-15T04:47:32;93427.41;;;-0.34;100.00
11077;BME280;5591;42.626;23.380;2024-01-15T04:49:58;93420.84;;;-0.19;100.00
11077;BME280;5591;42.626;23.380;2024-01-15T04:52:25;93417.81;;;-0.32;100.00
11077;BME280;5591;42.626;23.380;2024-01-15T04:54:52;93413.38;;;-0.22;100.00
11077;BME280;5591;42.626;23.380;2024-01-15T04:57:19;93420.41;;;-0.14;100.00
11077;BME280;5591;42.626;23.380;2024-01-15T04:59:47;93416.56;;;-0.10;100.00
11077;BME280;5591;42.626;23.380;2024-01-15T05:02:13;93416.47;;;-0.18;100.00
11077;BME280;5591;42.626;23.380;2024-01-15T05:04:40;93417.69;;;0.04;100.00
11077;BME280;5591;42.626;23.380;2024-01-15T05:07:07;93292.97;;;-0.64;100.00
11077;BME280;5591;42.626;23.380;2024-01-15T05:09:34;93396.22;;;-0.31;100.00
11077;BME280;5591;42.626;23.380;2024-01-15T05:12:01;93397.50;;;-0.71;100.00
11077;BME280;5591;42.626;23.380;2024-01-15T05:14:28;93396.94;;;-0.38;100.00
11077;BME280;5591;42.626;23.380;2024-01-15T05:16:56;93358.66;;;-0.33;100.00
11077;BME280;5591;42.626;23.380;2024-01-15T05:19:23;93403.69;;;-0.37;100.00
11077;BME280;5591;42.626;23.380;2024-01-15T05:21:50;93363.19;;;-0.45;100.00
11077;BME280;5591;42.626;23.380;2024-01-15T05:24:16;93366.41;;;0.01;100.00
11077;BME280;5591;42.626;23.380;2024-01-15T05:26:43;93383.50;;;0.20;100.00
11077;BME280;5591;42.626;23.380;2024-01-15T05:29:10;93366.81;;;0.06;100.00
11077;BME280;5591;42.626;23.380;2024-01-15T05:31:37;93338.28;;;-0.27;100.00
11077;BME280;5591;42.626;23.380;2024-01-15T05:34:05;93380.13;;;0.19;100.00
11077;BME280;5591;42.626;23.380;2024-01-15T05:36:32;93354.34;;;0.19;100.00
11077;BME280;5591;42.626;23.380;2024-01-15T05:38:58;93386.91;;;0.20;100.00
11077;BME280;5591;42.626;23.380;2024-01-15T05:41:25;93373.50;;;0.17;100.00
11077;BME280;5591;42.626;23.380;2024-01-15T05:43:52;93380.13;;;0.19;100.00
11077;BME280;5591;42.626;23.380;2024-01-15T05:46:19;93371.00;;;-0.54;100.00
11077;BME280;5591;42.626;23.380;2024-01-15T05:48:45;93249.84;;;-1.07;100.00
11077;BME280;5591;42.626;23.380;2024-01-15T05:51:13;93357.50;;;-0.21;100.00
11077;BME280;5591;42.626;23.380;2024-01-15T05:53:40;93348.13;;;-0.57;100.00
11077;BME280;5591;42.626;23.380;2024-01-15T05:56:08;93369.63;;;-0.49;100.00
11077;BME280;5591;42.626;23.380;2024-01-15T05:58:36;93361.84;;;-0.22;100.00
11077;BME280;5591;42.626;23.380;2024-01-15T06:01:03;93355.38;;;-0.26;100.00
11077;BME280;5591;42.626;23.380;2024-01-15T06:03:30;93361.94;;;-1.22;100.00
11077;BME280;5591;42.626;23.380;2024-01-15T06:05:56;93369.94;;;-0.88;100.00
11077;BME280;5591;42.626;23.380;2024-01-15T06:08:25;93369.81;;;-0.60;100.00
11077;BME280;5591;42.626;23.380;2024-01-15T06:10:53;93355.16;;;-0.59;100.00
11077;BME280;5591;42.626;23.380;2024-01-15T06:13:19;93315.38;;;-1.01;100.00
11077;BME280;5591;42.626;23.380;2024-01-15T06:15:46;93362.84;;;-0.50;100.00
11077;BME280;5591;42.626;23.380;2024-01-15T06:18:13;93344.16;;;-0.34;100.00
11077;BME280;5591;42.626;23.380;2024-01-15T06:20:40;93355.44;;;0.17;100.00
11077;BME280;5591;42.626;23.380;2024-01-15T06:23:07;93361.63;;;0.41;100.00
11077;BME280;5591;42.626;23.380;2024-01-15T06:25:35;93365.16;;;0.40;100.00
11077;BME280;5591;42.626;23.380;2024-01-15T06:28:02;93352.06;;;0.16;100.00
11077;BME280;5591;42.626;23.380;2024-01-15T06:30:30;93358.56;;;0.63;100.00
11077;BME280;5591;42.626;23.380;2024-01-15T06:32:57;93355.53;;;0.68;100.00
11077;BME280;5591;42.626;23.380;2024-01-15T06:35:23;93315.69;;;0.70;100.00
11077;BME280;5591;42.626;23.380;2024-01-15T06:37:50;93358.34;;;0.82;100.00
11077;BME280;5591;42.626;23.380;2024-01-15T06:40:17;93352.31;;;0.74;100.00
11077;BME280;5591;42.626;23.380;2024-01-15T06:42:45;93366.88;;;1.08;100.00
11077;BME280;5591;42.626;23.380;2024-01-15T06:45:12;93358.34;;;1.08;100.00
11077;BME280;5591;42.626;23.380;2024-01-15T06:47:39;93384.94;;;0.75;100.00
11077;BME280;5591;42.626;23.380;2024-01-15T06:50:07;93363.06;;;1.20;100.00
11077;BME280;5591;42.626;23.380;2024-01-15T06:52:34;93374.59;;;1.67;100.00
11077;BME280;5591;42.626;23.380;2024-01-15T06:55:02;93373.09;;;1.57;100.00
11077;BME280;5591;42.626;23.380;2024-01-15T06:57:32;93360.13;;;1.90;100.00
11077;BME280;5591;42.626;23.380;2024-01-15T07:00:01;93388.47;;;1.58;100.00
11077;BME280;5591;42.626;23.380;2024-01-15T07:02:32;93379.03;;;1.49;100.00
11077;BME280;5591;42.626;23.380;2024-01-15T07:04:59;93348.56;;;1.69;100.00
11077;BME280;5591;42.626;23.380;2024-01-15T07:07:30;93407.88;;;2.28;100.00
11077;BME280;5591;42.626;23.380;2024-01-15T07:09:56;93387.53;;;2.56;100.00
11077;BME280;5591;42.626;23.380;2024-01-15T07:12:23;93397.78;;;1.93;100.00
11077;BME280;5591;42.626;23.380;2024-01-15T07:14:50;93385.00;;;1.42;100.00
11077;BME280;5591;42.626;23.380;2024-01-15T07:17:18;93379.25;;;1.64;100.00
11077;BME280;5591;42.626;23.380;2024-01-15T07:19:45;93396.41;;;1.65;100.00
11077;BME280;5591;42.626;23.380;2024-01-15T07:22:12;93401.19;;;2.01;100.00
11077;BME280;5591;42.626;23.380;2024-01-15T07:24:39;93403.56;;;2.52;100.00
11077;BME280;5591;42.626;23.380;2024-01-15T07:27:06;93401.16;;;2.66;100.00
11077;BME280;5591;42.626;23.380;2024-01-15T07:29:33;93390.75;;;2.27;100.00
11077;BME280;5591;42.626;23.380;2024-01-15T07:32:03;93386.38;;;2.59;100.00
11077;BME280;5591;42.626;23.380;2024-01-15T07:34:31;93387.38;;;2.74;100.00
11077;BME280;5591;42.626;23.380;2024-01-15T07:36:58;93325.53;;;2.39;100.00
11077;BME280;5591;42.626;23.380;2024-01-15T07:39:25;93322.16;;;2.38;100.00
11077;BME280;5591;42.626;23.380;2024-01-15T07:41:51;93386.41;;;2.67;100.00
11077;BME280;5591;42.626;23.380;2024-01-15T07:44:18;93402.75;;;2.83;100.00
11077;BME280;5591;42.626;23.380;2024-01-15T07:46:45;93367.81;;;2.55;100.00
11077;BME280;5591;42.626;23.380;2024-01-15T07:49:13;93390.13;;;2.80;100.00
11077;BME280;5591;42.626;23.380;2024-01-15T07:51:41;93401.75;;;3.08;100.00
11077;BME280;5591;42.626;23.380;2024-01-15T07:54:09;93423.16;;;2.70;100.00
11077;BME280;5591;42.626;23.380;2024-01-15T07:56:54;93402.41;;;3.10;100.00
11077;BME280;5591;42.626;23.380;2024-01-15T07:59:21;93411.47;;;3.22;98.40
11077;BME280;5591;42.626;23.380;2024-01-15T08:01:48;93377.63;;;3.00;98.49
11077;BME280;5591;42.626;23.380;2024-01-15T08:04:15;93428.44;;;3.41;96.91
11077;BME280;5591;42.626;23.380;2024-01-15T08:06:43;93383.00;;;2.82;98.23
11077;BME280;5591;42.626;23.380;2024-01-15T08:09:10;93388.63;;;3.18;97.35
11077;BME280;5591;42.626;23.380;2024-01-15T08:11:39;93378.59;;;3.07;96.49
11077;BME280;5591;42.626;23.380;2024-01-15T08:14:08;93384.91;;;3.67;96.63
11077;BME280;5591;42.626;23.380;2024-01-15T08:16:35;93391.75;;;3.98;94.55
11077;BME280;5591;42.626;23.380;2024-01-15T08:19:01;93402.53;;;3.79;94.44
11077;BME280;5591;42.626;23.380;2024-01-15T08:21:28;93407.81;;;3.94;95.03
11077;BME280;5591;42.626;23.380;2024-01-15T08:23:59;93378.81;;;3.90;94.03
11077;BME280;5591;42.626;23.380;2024-01-15T08:26:26;93397.38;;;3.25;95.39
11077;BME280;5591;42.626;23.380;2024-01-15T08:28:53;93390.72;;;3.06;95.09
11077;BME280;5591;42.626;23.380;2024-01-15T08:31:19;93396.34;;;3.88;93.21
11077;BME280;5591;42.626;23.380;2024-01-15T08:33:46;93380.31;;;4.15;90.80
11077;BME280;5591;42.626;23.380;2024-01-15T08:36:13;93380.63;;;4.12;89.70
11077;BME280;5591;42.626;23.380;2024-01-15T08:38:40;93364.66;;;4.01;91.17
11077;BME280;5591;42.626;23.380;2024-01-15T08:41:08;93381.81;;;4.32;89.85
11077;BME280;5591;42.626;23.380;2024-01-15T08:43:35;93354.88;;;4.11;88.32
11077;BME280;5591;42.626;23.380;2024-01-15T08:46:02;93384.09;;;3.74;88.14
11077;BME280;5591;42.626;23.380;2024-01-15T08:48:29;93345.56;;;3.55;89.12
11077;BME280;5591;42.626;23.380;2024-01-15T08:50:56;93369.16;;;4.07;88.13
11077;BME280;5591;42.626;23.380;2024-01-15T08:53:22;93347.03;;;3.58;88.15
11077;BME280;5591;42.626;23.380;2024-01-15T08:55:49;93368.94;;;3.47;89.30
11077;BME280;5591;42.626;23.380;2024-01-15T08:58:17;93346.44;;;3.78;89.01
11077;BME280;5591;42.626;23.380;2024-01-15T09:00:44;93361.34;;;3.84;87.30
11077;BME280;5591;42.626;23.380;2024-01-15T09:03:11;93351.09;;;4.44;85.71
11077;BME280;5591;42.626;23.380;2024-01-15T09:05:38;93341.66;;;4.65;83.19
11077;BME280;5591;42.626;23.380;2024-01-15T09:08:06;93351.09;;;4.44;83.42
11077;BME280;5591;42.626;23.380;2024-01-15T09:10:33;93314.84;;;5.01;81.42
11077;BME280;5591;42.626;23.380;2024-01-15T09:12:59;93322.41;;;5.54;80.41
11077;BME280;5591;42.626;23.380;2024-01-15T09:15:28;93307.84;;;5.74;77.75
11077;BME280;5591;42.626;23.380;2024-01-15T09:17:54;93301.13;;;5.80;77.01
11077;BME280;5591;42.626;23.380;2024-01-15T09:20:22;93275.63;;;5.61;77.69
11077;BME280;5591;42.626;23.380;2024-01-15T09:22:49;93277.09;;;5.63;76.56
11077;BME280;5591;42.626;23.380;2024-01-15T09:25:16;93248.69;;;5.33;81.23
11077;BME280;5591;42.626;23.380;2024-01-15T09:27:44;93271.28;;;5.32;86.52
11077;BME280;5591;42.626;23.380;2024-01-15T09:30:12;93206.63;;;4.57;88.49
11077;BME280;5591;42.626;23.380;2024-01-15T09:32:40;93266.34;;;4.79;91.16
11077;BME280;5591;42.626;23.380;2024-01-15T09:35:07;93276.16;;;4.70;92.72
11077;BME280;5591;42.626;23.380;2024-01-15T09:37:34;93281.59;;;4.97;91.39
11077;BME280;5591;42.626;23.380;2024-01-15T09:40:03;93220.53;;;4.64;89.93
11077;BME280;5591;42.626;23.380;2024-01-15T09:42:30;93268.94;;;4.79;87.88
11077;BME280;5591;42.626;23.380;2024-01-15T09:44:57;93266.72;;;4.54;89.25
11077;BME280;5591;42.626;23.380;2024-01-15T09:47:24;93254.47;;;4.48;89.60
11077;BME280;5591;42.626;23.380;2024-01-15T09:49:52;93248.13;;;4.65;89.54
11077;BME280;5591;42.626;23.380;2024-01-15T09:52:19;93235.75;;;4.67;89.27
11077;BME280;5591;42.626;23.380;2024-01-15T09:54:47;93229.56;;;4.54;90.46
11077;BME280;5591;42.626;23.380;2024-01-15T09:57:15;93228.47;;;4.34;89.97
11077;BME280;5591;42.626;23.380;2024-01-15T09:59:43;93216.06;;;4.21;92.46
11077;BME280;5591;42.626;23.380;2024-01-15T10:02:12;93223.25;;;3.74;93.11
11077;BME280;5591;42.626;23.380;2024-01-15T10:04:42;93229.06;;;3.46;97.62
11077;BME280;5591;42.626;23.380;2024-01-15T10:07:12;93203.88;;;3.62;96.83
11077;BME280;5591;42.626;23.380;2024-01-15T10:09:41;93224.00;;;4.05;95.80
11077;BME280;5591;42.626;23.380;2024-01-15T10:12:09;93218.97;;;2.90;98.71
11077;BME280;5591;42.626;23.380;2024-01-15T10:14:36;93204.59;;;3.48;99.64
11077;BME280;5591;42.626;23.380;2024-01-15T10:17:12;93211.88;;;2.84;100.00
11077;BME280;5591;42.626;23.380;2024-01-15T10:19:39;93222.81;;;3.02;100.00
11077;BME280;5591;42.626;23.380;2024-01-15T10:22:07;93195.88;;;3.11;100.00
11077;BME280;5591;42.626;23.380;2024-01-15T10:24:36;93196.28;;;3.83;100.00
11077;BME280;5591;42.626;23.380;2024-01-15T10:27:07;93098.75;;;3.29;98.65
11077;BME280;5591;42.626;23.380;2024-01-15T10:29:34;93169.09;;;4.45;96.97
11077;BME280;5591;42.626;23.380;2024-01-15T10:32:02;93178.31;;;4.48;93.94
11077;BME280;5591;42.626;23.380;2024-01-15T10:34:30;93158.28;;;3.68;95.56
11077;BME280;5591;42.626;23.380;2024-01-15T10:36:57;93165.72;;;4.59;94.48
11077;BME280;5591;42.626;23.380;2024-01-15T10:39:24;93126.53;;;4.89;89.72
11077;BME280;5591;42.626;23.380;2024-01-15T10:41:52;93163.97;;;5.24;86.91
11077;BME280;5591;42.626;23.380;2024-01-15T10:44:19;93171.25;;;5.14;86.16
11077;BME280;5591;42.626;23.380;2024-01-15T10:46:46;93194.88;;;4.32;88.28
11077;BME280;5591;42.626;23.380;2024-01-15T10:49:13;93154.97;;;4.77;86.51
11077;BME280;5591;42.626;23.380;2024-01-15T10:51:41;93147.06;;;5.34;85.36
11077;BME280;5591;42.626;23.380;2024-01-15T10:54:09;93145.38;;;5.27;83.58
11077;BME280;5591;42.626;23.380;2024-01-15T10:56:37;93148.75;;;5.63;84.49
11077;BME280;5591;42.626;23.380;2024-01-15T10:59:06;93145.94;;;5.22;81.69
11077;BME280;5591;42.626;23.380;2024-01-15T11:01:36;93152.25;;;5.70;80.26
11077;BME280;5591;42.626;23.380;2024-01-15T11:04:03;93144.56;;;6.04;78.11
11077;BME280;5591;42.626;23.380;2024-01-15T11:06:42;93139.34;;;6.25;75.93
11077;BME280;5591;42.626;23.380;2024-01-15T11:09:09;93102.38;;;5.87;74.77
11077;BME280;5591;42.626;23.380;2024-01-15T11:11:40;93122.63;;;6.40;74.90
11077;BME280;5591;42.626;23.380;2024-01-15T11:14:08;93134.06;;;5.91;76.14
11077;BME280;5591;42.626;23.380;2024-01-15T11:16:54;93112.72;;;5.81;76.47
11077;BME280;5591;42.626;23.380;2024-01-15T11:19:21;93113.28;;;6.59;74.78
11077;BME280;5591;42.626;23.380;2024-01-15T11:21:48;93119.03;;;5.72;76.17
11077;BME280;5591;42.626;23.380;2024-01-15T11:24:33;93141.91;;;5.97;74.87
11077;BME280;5591;42.626;23.380;2024-01-15T11:27:01;93092.09;;;6.62;74.93
11077;BME280;5591;42.626;23.380;2024-01-15T11:29:33;93137.63;;;7.59;70.78
11077;BME280;5591;42.626;23.380;2024-01-15T11:32:03;93098.13;;;8.27;69.12
11077;BME280;5591;42.626;23.380;2024-01-15T11:34:58;93111.38;;;8.52;65.94
11077;BME280;5591;42.626;23.380;2024-01-15T11:37:28;93103.75;;;8.44;65.50
11077;BME280;5591;42.626;23.380;2024-01-15T11:39:59;93103.50;;;8.84;64.40
11077;BME280;5591;42.626;23.380;2024-01-15T11:42:29;93087.84;;;7.87;64.90
11077;BME280;5591;42.626;23.380;2024-01-15T11:44:57;93091.25;;;7.74;67.29
11077;BME280;5591;42.626;23.380;2024-01-15T11:50:32;93045.00;;;7.29;65.21
11077;BME280;5591;42.626;23.380;2024-01-15T11:53:01;93073.19;;;8.25;66.11
11077;BME280;5591;42.626;23.380;2024-01-15T11:55:33;93083.28;;;8.21;65.65
11077;BME280;5591;42.626;23.380;2024-01-15T11:58:01;93083.19;;;8.73;66.24
11077;BME280;5591;42.626;23.380;2024-01-15T12:00:30;93062.53;;;9.53;63.57
11077;BME280;5591;42.626;23.380;2024-01-15T12:02:58;93071.22;;;10.09;61.51
11077;BME280;5591;42.626;23.380;2024-01-15T12:05:27;93052.41;;;11.33;59.56
11077;BME280;5591;42.626;23.380;2024-01-15T12:07:54;93039.44;;;10.84;57.25
11077;BME280;5591;42.626;23.380;2024-01-15T12:10:21;93059.88;;;11.18;57.41
11077;BME280;5591;42.626;23.380;2024-01-15T12:12:57;93041.34;;;11.90;56.04
11077;BME280;5591;42.626;23.380;2024-01-15T12:15:25;93034.78;;;12.56;54.20
11077;BME280;5591;42.626;23.380;2024-01-15T12:17:54;92952.16;;;12.68;52.26
11077;BME280;5591;42.626;23.380;2024-01-15T12:20:21;93020.88;;;13.57;51.04
11077;BME280;5591;42.626;23.380;2024-01-15T12:22:48;93033.97;;;10.49;54.54
11077;BME280;5591;42.626;23.380;2024-01-15T12:25:16;93037.91;;;10.58;56.43
11077;BME280;5591;42.626;23.380;2024-01-15T12:27:42;93026.94;;;11.33;55.42
11077;BME280;5591;42.626;23.380;2024-01-15T12:30:11;93020.91;;;12.03;54.19
11077;BME280;5591;42.626;23.380;2024-01-15T12:32:40;93075.31;;;11.44;54.69
11077;BME280;5591;42.626;23.380;2024-01-15T12:35:09;93046.28;;;9.76;57.57
11077;BME280;5591;42.626;23.380;2024-01-15T12:37:36;93062.84;;;9.94;58.16
11077;BME280;5591;42.626;23.380;2024-01-15T12:40:04;93032.19;;;9.39;60.23
11077;BME280;5591;42.626;23.380;2024-01-15T12:42:32;93035.47;;;9.28;59.66
11077;BME280;5591;42.626;23.380;2024-01-15T12:44:59;92967.06;;;9.49;59.42
11077;BME280;5591;42.626;23.380;2024-01-15T12:47:26;93031.94;;;9.10;60.99
11077;BME280;5591;42.626;23.380;2024-01-15T12:49:53;93020.69;;;9.71;60.50
11077;BME280;5591;42.626;23.380;2024-01-15T12:52:21;93030.00;;;9.91;60.12
11077;BME280;5591;42.626;23.380;2024-01-15T12:54:48;93012.66;;;10.21;58.73
11077;BME280;5591;42.626;23.380;2024-01-15T12:57:15;93017.16;;;10.14;58.01
11077;BME280;5591;42.626;23.380;2024-01-15T12:59:42;93033.09;;;9.20;60.86
11077;BME280;5591;42.626;23.380;2024-01-15T13:02:09;93015.13;;;8.36;63.43
11077;BME280;5591;42.626;23.380;2024-01-15T13:04:37;93005.56;;;9.11;62.56
11077;BME280;5591;42.626;23.380;2024-01-15T13:07:04;93000.38;;;8.54;63.81